createdAt,value
2018-12-20T00:00:33.744Z,40.27
2018-12-20T00:03:01.891Z,43.00
2018-12-20T00:05:29.969Z,33.80
2018-12-20T00:07:58.468Z,33.90
2018-12-20T00:10:28.075Z,37.60
2018-12-20T00:12:56.121Z,33.50
2018-12-20T00:15:24.258Z,37.10
2018-12-20T00:17:53.088Z,37.43
2018-12-20T00:20:21.752Z,38.20
2018-12-20T00:22:49.749Z,36.83
2018-12-20T00:25:17.744Z,40.37
2018-12-20T00:27:45.749Z,37.53
2018-12-20T00:30:14.682Z,36.07
2018-12-20T00:32:42.803Z,39.90
2018-12-20T00:35:10.874Z,32.67
2018-12-20T00:37:39.627Z,36.33
2018-12-20T00:40:07.867Z,39.13
2018-12-20T00:42:35.923Z,37.53
2018-12-20T00:45:04.236Z,39.30
2018-12-20T00:47:32.954Z,40.73
2018-12-20T00:50:00.933Z,37.60
2018-12-20T00:52:29.110Z,37.83
2018-12-20T00:54:57.565Z,36.00
2018-12-20T00:57:25.529Z,35.67
2018-12-20T00:59:53.720Z,34.80
2018-12-20T01:02:21.801Z,34.73
2018-12-20T01:04:49.781Z,38.47
2018-12-20T01:07:17.743Z,37.63
2018-12-20T01:09:45.715Z,38.47
2018-12-20T01:12:13.823Z,35.57
2018-12-20T01:14:45.382Z,35.33
2018-12-20T01:17:11.976Z,34.97
2018-12-20T01:19:40.546Z,41.23
2018-12-20T01:22:08.601Z,38.27
2018-12-20T01:24:36.585Z,39.37
2018-12-20T01:27:04.633Z,39.43
2018-12-20T01:29:32.760Z,37.93
2018-12-20T01:32:01.420Z,42.67
2018-12-20T01:34:29.538Z,33.50
2018-12-20T01:36:57.606Z,42.30
2018-12-20T01:39:25.662Z,37.80
2018-12-20T01:41:53.687Z,38.50
2018-12-20T01:44:21.739Z,36.33
2018-12-20T01:46:50.022Z,36.70
2018-12-20T01:49:18.200Z,40.07
2018-12-20T01:51:46.276Z,41.37
2018-12-20T01:54:14.365Z,40.73
2018-12-20T01:56:42.418Z,44.10
2018-12-20T01:59:10.556Z,42.00
2018-12-20T02:01:38.624Z,44.10
2018-12-20T02:04:06.829Z,41.00
2018-12-20T02:06:35.314Z,39.50
2018-12-20T02:09:06.778Z,43.70
2018-12-20T02:11:34.883Z,40.90
2018-12-20T02:14:03.137Z,38.83
2018-12-20T02:16:31.204Z,42.70
2018-12-20T02:18:59.249Z,44.30
2018-12-20T02:21:27.536Z,45.47
2018-12-20T02:23:55.623Z,46.50
2018-12-20T02:26:23.622Z,39.17
2018-12-20T02:28:51.627Z,41.10
2018-12-20T02:31:19.726Z,38.90
2018-12-20T02:33:47.702Z,35.73
2018-12-20T02:36:15.679Z,45.03
2018-12-20T02:38:43.741Z,43.67
2018-12-20T02:41:12.864Z,44.87
2018-12-20T02:43:41.189Z,46.20
2018-12-20T02:46:09.326Z,48.70
2018-12-20T02:48:37.601Z,45.53
2018-12-20T02:51:05.710Z,41.20
2018-12-20T02:53:33.759Z,42.60
2018-12-20T02:56:01.817Z,42.60
2018-12-20T02:58:31.044Z,41.00
2018-12-20T03:01:00.097Z,47.43
2018-12-20T03:03:28.390Z,47.70
2018-12-20T03:05:56.465Z,44.43
2018-12-20T03:08:24.474Z,43.63
2018-12-20T03:10:52.411Z,42.27
2018-12-20T03:13:21.187Z,45.40
2018-12-20T03:15:49.228Z,39.93
2018-12-20T03:18:17.571Z,43.73
2018-12-20T03:20:45.561Z,43.67
2018-12-20T03:23:13.704Z,41.60
2018-12-20T03:25:41.783Z,43.00
2018-12-20T03:28:10.068Z,45.73
2018-12-20T03:30:38.880Z,46.47
2018-12-20T03:33:10.479Z,42.23
2018-12-20T03:35:39.026Z,41.17
2018-12-20T03:38:08.483Z,44.87
2018-12-20T03:40:36.472Z,46.53
2018-12-20T03:43:04.670Z,45.60
2018-12-20T03:45:32.987Z,43.70
2018-12-20T03:48:02.467Z,46.83
2018-12-20T03:50:30.426Z,43.57
2018-12-20T03:52:58.524Z,43.50
2018-12-20T03:55:27.349Z,46.20
2018-12-20T03:57:56.132Z,42.60
2018-12-20T04:00:25.162Z,46.30
2018-12-20T04:02:53.299Z,44.87
2018-12-20T04:05:21.396Z,41.13
2018-12-20T04:07:49.513Z,43.10
2018-12-20T04:10:17.769Z,41.67
2018-12-20T04:12:46.410Z,43.83
2018-12-20T04:15:14.435Z,45.70
2018-12-20T04:17:42.443Z,44.40
2018-12-20T04:20:10.762Z,50.30
2018-12-20T04:22:38.999Z,44.63
2018-12-20T04:25:07.202Z,43.10
2018-12-20T04:27:37.200Z,42.60
2018-12-20T04:30:06.172Z,47.63
2018-12-20T04:32:35.074Z,43.83
2018-12-20T04:35:03.311Z,47.43
2018-12-20T04:37:31.250Z,42.30
2018-12-20T04:39:59.264Z,44.57
2018-12-20T04:42:27.258Z,42.20
2018-12-20T04:44:55.267Z,42.23
2018-12-20T04:47:23.275Z,50.20
2018-12-20T04:49:51.274Z,46.93
2018-12-20T04:52:19.287Z,49.37
2018-12-20T04:54:47.817Z,49.47
2018-12-20T04:57:16.143Z,46.60
2018-12-20T04:59:44.315Z,46.93
2018-12-20T05:02:13.095Z,47.33
2018-12-20T05:04:41.123Z,45.40
2018-12-20T05:07:09.094Z,47.57
2018-12-20T05:09:37.233Z,46.10
2018-12-20T05:12:05.304Z,46.93
2018-12-20T05:14:33.602Z,49.33
2018-12-20T05:17:01.995Z,47.33
2018-12-20T05:19:30.103Z,46.77
2018-12-20T05:21:58.380Z,46.77
2018-12-20T05:24:26.648Z,44.80
2018-12-20T05:26:55.481Z,44.30
2018-12-20T05:29:23.627Z,46.70
2018-12-20T05:31:51.582Z,50.27
2018-12-20T05:34:19.608Z,42.47
2018-12-20T05:36:47.752Z,49.83
2018-12-20T05:39:15.978Z,48.00
2018-12-20T05:41:43.977Z,49.10
2018-12-20T05:44:12.065Z,47.83
2018-12-20T05:46:40.552Z,44.57
2018-12-20T05:49:08.735Z,50.87
2018-12-20T05:51:36.941Z,46.40
2018-12-20T05:54:05.229Z,44.80
2018-12-20T05:56:33.396Z,46.37
2018-12-20T05:59:01.423Z,42.57
2018-12-20T06:01:29.489Z,49.07
2018-12-20T06:03:57.619Z,46.50
2018-12-20T06:06:25.634Z,48.57
2018-12-20T06:08:54.177Z,49.80
2018-12-20T06:11:22.429Z,47.23
2018-12-20T06:13:50.491Z,46.83
2018-12-20T06:16:18.627Z,47.03
2018-12-20T06:18:46.798Z,50.00
2018-12-20T06:21:14.901Z,49.97
2018-12-20T06:23:42.873Z,46.37
2018-12-20T06:26:10.836Z,48.60
2018-12-20T06:28:38.819Z,53.40
2018-12-20T06:31:06.807Z,50.20
2018-12-20T06:33:34.770Z,52.60
2018-12-20T06:36:03.482Z,53.77
2018-12-20T06:38:31.518Z,55.03
2018-12-20T06:40:59.482Z,51.97
2018-12-20T06:43:27.456Z,49.57
2018-12-20T06:45:55.473Z,48.27
2018-12-20T06:48:23.450Z,48.10
2018-12-20T06:50:51.414Z,52.70
2018-12-20T06:53:19.391Z,53.50
2018-12-20T06:55:47.696Z,53.73
2018-12-20T06:58:15.694Z,53.50
2018-12-20T07:00:44.426Z,50.60
2018-12-20T07:03:12.502Z,54.07
2018-12-20T07:05:40.470Z,52.80
2018-12-20T07:08:08.414Z,51.60
2018-12-20T07:10:37.095Z,49.33
2018-12-20T07:13:05.454Z,57.57
2018-12-20T07:15:34.071Z,62.60
2018-12-20T07:18:02.031Z,57.13
2018-12-20T07:20:30.129Z,50.63
2018-12-20T07:22:58.121Z,48.43
2018-12-20T07:25:26.171Z,54.00
2018-12-20T07:27:54.863Z,54.47
2018-12-20T07:30:22.852Z,54.67
2018-12-20T07:32:50.875Z,53.73
2018-12-20T07:35:18.921Z,61.33
2018-12-20T07:37:46.946Z,53.47
2018-12-20T07:40:14.964Z,48.63
2018-12-20T07:42:43.037Z,57.07
2018-12-20T07:45:11.670Z,55.07
2018-12-20T07:47:40.766Z,57.90
2018-12-20T07:50:08.795Z,53.50
2018-12-20T07:52:36.783Z,53.27
2018-12-20T07:55:04.950Z,49.30
2018-12-20T07:57:33.085Z,51.97
2018-12-20T08:00:01.095Z,54.43
2018-12-20T08:02:29.484Z,56.47
2018-12-20T08:04:57.522Z,50.70
2018-12-20T08:07:25.530Z,51.40
2018-12-20T08:09:53.484Z,49.37
2018-12-20T08:12:21.527Z,55.43
2018-12-20T08:14:49.497Z,56.93
2018-12-20T08:17:17.445Z,63.57
2018-12-20T08:19:45.468Z,60.40
2018-12-20T08:22:13.457Z,57.73
2018-12-20T08:24:42.024Z,55.50
2018-12-20T08:27:09.992Z,57.30
2018-12-20T08:29:37.962Z,58.07
2018-12-20T08:32:06.010Z,58.10
2018-12-20T08:34:33.974Z,56.50
2018-12-20T08:37:01.974Z,51.03
2018-12-20T08:39:29.923Z,57.77
2018-12-20T08:41:57.921Z,50.60
2018-12-20T08:44:26.730Z,55.83
2018-12-20T08:46:54.800Z,55.20
2018-12-20T08:49:23.624Z,56.60
2018-12-20T08:51:51.615Z,49.77
2018-12-20T08:54:19.662Z,52.03
2018-12-20T08:56:47.826Z,49.90
2018-12-20T08:59:15.835Z,56.73
2018-12-20T09:01:43.821Z,47.63
2018-12-20T09:04:11.762Z,54.30
2018-12-20T09:06:40.352Z,50.17
2018-12-20T09:09:08.349Z,48.40
2018-12-20T09:11:36.458Z,50.03
2018-12-20T09:14:04.488Z,53.23
2018-12-20T09:16:32.446Z,48.30
2018-12-20T09:19:00.437Z,53.57
2018-12-20T09:21:28.716Z,52.60
2018-12-20T09:23:56.734Z,48.93
2018-12-20T09:26:24.810Z,52.80
2018-12-20T09:28:53.353Z,47.87
2018-12-20T09:31:21.369Z,48.43
2018-12-20T09:33:49.369Z,48.77
2018-12-20T09:36:17.318Z,48.30
2018-12-20T09:38:45.279Z,50.30
2018-12-20T09:41:13.746Z,54.47
2018-12-20T09:43:41.738Z,52.93
2018-12-20T09:46:09.764Z,46.53
2018-12-20T09:48:37.756Z,52.30
2018-12-20T09:51:05.793Z,56.20
2018-12-20T09:53:34.903Z,47.10
2018-12-20T09:56:02.921Z,44.73
2018-12-20T09:58:30.912Z,55.30
2018-12-20T10:00:58.878Z,44.83
2018-12-20T10:03:26.950Z,45.90
2018-12-20T10:05:54.938Z,49.57
2018-12-20T10:08:22.892Z,53.73
2018-12-20T10:10:50.883Z,45.77
2018-12-20T10:13:18.882Z,48.53
2018-12-20T10:15:46.858Z,49.43
2018-12-20T10:18:14.852Z,48.27
2018-12-20T10:20:42.809Z,48.97
2018-12-20T10:23:10.797Z,50.67
2018-12-20T10:25:38.758Z,48.90
2018-12-20T10:28:06.753Z,52.93
2018-12-20T10:30:34.720Z,49.30
2018-12-20T10:33:03.262Z,54.57
2018-12-20T10:35:31.245Z,48.77
2018-12-20T10:37:59.387Z,52.67
2018-12-20T10:40:27.350Z,51.83
2018-12-20T10:42:55.300Z,53.77
2018-12-20T10:45:23.431Z,51.77
2018-12-20T10:47:51.401Z,53.70
2018-12-20T10:50:19.405Z,47.40
2018-12-20T10:52:48.151Z,50.60
2018-12-20T10:55:16.232Z,55.47
2018-12-20T10:57:44.565Z,53.70
2018-12-20T11:00:12.613Z,49.60
2018-12-20T11:02:46.241Z,49.60
2018-12-20T11:05:19.831Z,51.03
2018-12-20T11:07:54.355Z,51.23
2018-12-20T11:10:26.222Z,51.17
2018-12-20T11:12:54.223Z,54.07
2018-12-20T11:15:23.039Z,56.10
2018-12-20T11:17:51.639Z,49.60
2018-12-20T11:20:20.557Z,48.03
2018-12-20T11:22:48.616Z,47.23
2018-12-20T11:25:16.884Z,46.67
2018-12-20T11:27:44.953Z,53.53
2018-12-20T11:30:12.909Z,50.87
2018-12-20T11:32:40.943Z,47.00
2018-12-20T11:35:08.915Z,45.63
2018-12-20T11:37:36.876Z,51.90
2018-12-20T11:40:05.128Z,54.60
2018-12-20T11:42:33.135Z,46.23
2018-12-20T11:45:01.110Z,52.60
2018-12-20T11:47:29.149Z,49.10
2018-12-20T11:49:57.098Z,51.20
2018-12-20T11:52:25.079Z,48.63
2018-12-20T11:54:54.344Z,47.37
2018-12-20T11:57:22.481Z,48.00
2018-12-20T11:59:50.506Z,43.23
2018-12-20T12:02:24.384Z,50.67
2018-12-20T12:04:49.054Z,53.20
2018-12-20T12:07:17.500Z,46.53
2018-12-20T12:09:45.714Z,43.97
2018-12-20T12:12:14.501Z,50.10
2018-12-20T12:14:42.799Z,46.77
2018-12-20T12:17:10.796Z,48.03
2018-12-20T12:19:39.749Z,43.77
2018-12-20T12:22:07.737Z,51.60
2018-12-20T12:24:35.700Z,49.07
2018-12-20T12:27:03.692Z,49.60
2018-12-20T12:29:32.381Z,52.13
2018-12-20T12:32:01.170Z,52.70
2018-12-20T12:34:29.509Z,53.77
2018-12-20T12:36:57.496Z,53.97
2018-12-20T12:39:25.569Z,50.80
2018-12-20T12:41:53.630Z,50.53
2018-12-20T12:44:22.124Z,50.00
2018-12-20T12:46:50.086Z,51.93
2018-12-20T12:49:18.093Z,48.73
2018-12-20T12:51:52.939Z,48.93
2018-12-20T12:54:16.141Z,52.43
2018-12-20T12:56:44.102Z,49.63
2018-12-20T12:59:12.471Z,49.60
2018-12-20T13:01:40.511Z,51.63
2018-12-20T13:04:08.575Z,46.57
2018-12-20T13:06:36.726Z,47.97
2018-12-20T13:09:05.824Z,53.27
2018-12-20T13:11:33.836Z,52.57
2018-12-20T13:14:01.883Z,46.87
2018-12-20T13:16:31.575Z,54.27
2018-12-20T13:19:00.173Z,48.53
2018-12-20T13:21:28.124Z,46.40
2018-12-20T13:23:56.131Z,50.47
2018-12-20T13:26:24.068Z,49.27
2018-12-20T13:28:52.073Z,47.47
2018-12-20T13:31:20.043Z,50.13
2018-12-20T13:33:48.060Z,48.03
2018-12-20T13:36:16.390Z,52.40
2018-12-20T13:38:44.426Z,49.90
2018-12-20T13:41:12.410Z,54.07
2018-12-20T13:43:40.355Z,53.80
2018-12-20T13:46:08.324Z,57.30
2018-12-20T13:48:36.288Z,50.57
2018-12-20T13:51:04.291Z,47.10
2018-12-20T13:53:32.263Z,51.73
2018-12-20T13:56:00.238Z,50.20
2018-12-20T13:58:28.228Z,50.20
2018-12-20T14:00:56.226Z,48.00
2018-12-20T14:03:24.220Z,49.83
2018-12-20T14:05:52.221Z,48.80
2018-12-20T14:08:20.189Z,52.60
2018-12-20T14:10:48.148Z,51.27
2018-12-20T14:13:16.119Z,52.20
2018-12-20T14:15:44.092Z,51.77
2018-12-20T14:18:12.028Z,51.77
2018-12-20T14:20:39.986Z,48.90
2018-12-20T14:23:07.957Z,47.50
2018-12-20T14:25:35.994Z,52.00
2018-12-20T14:28:03.941Z,48.63
2018-12-20T14:30:31.914Z,54.33
2018-12-20T14:33:00.006Z,46.10
2018-12-20T14:35:27.951Z,49.50
2018-12-20T14:37:55.973Z,52.40
2018-12-20T14:40:24.014Z,54.13
2018-12-20T14:42:52.526Z,50.43
2018-12-20T14:45:20.493Z,54.03
2018-12-20T14:47:48.476Z,54.40
2018-12-20T14:50:16.462Z,54.60
2018-12-20T14:52:44.451Z,52.23
2018-12-20T14:55:12.510Z,55.67
2018-12-20T14:57:40.470Z,50.40
2018-12-20T15:00:10.488Z,50.83
2018-12-20T15:02:38.552Z,52.17
2018-12-20T15:05:06.890Z,48.00
2018-12-20T15:07:34.845Z,54.63
2018-12-20T15:10:03.988Z,57.73
2018-12-20T15:12:31.973Z,52.43
2018-12-20T15:14:59.971Z,48.63
2018-12-20T15:17:27.965Z,52.80
2018-12-20T15:19:55.955Z,50.30
2018-12-20T15:22:23.993Z,44.37
2018-12-20T15:24:51.981Z,47.30
2018-12-20T15:27:19.951Z,47.77
2018-12-20T15:29:47.926Z,50.27
2018-12-20T15:32:15.894Z,45.83
2018-12-20T15:34:43.995Z,45.60
2018-12-20T15:37:11.948Z,45.53
2018-12-20T15:39:40.790Z,46.23
2018-12-20T15:42:08.820Z,43.27
2018-12-20T15:44:36.777Z,44.67
2018-12-20T15:47:04.787Z,45.23
2018-12-20T15:49:32.797Z,46.63
2018-12-20T15:52:00.848Z,45.33
2018-12-20T15:54:28.817Z,51.27
2018-12-20T15:56:56.833Z,49.43
2018-12-20T15:59:24.750Z,50.10
2018-12-20T16:01:52.882Z,55.00
2018-12-20T16:04:20.817Z,49.83
2018-12-20T16:06:48.786Z,50.40
2018-12-20T16:09:17.513Z,54.50
2018-12-20T16:11:46.499Z,49.70
2018-12-20T16:14:14.540Z,51.00
2018-12-20T16:16:42.981Z,55.23
2018-12-20T16:19:10.921Z,53.77
2018-12-20T16:21:38.957Z,52.53
2018-12-20T16:24:07.507Z,54.33
2018-12-20T16:26:35.655Z,52.07
2018-12-20T16:29:03.790Z,53.93
2018-12-20T16:31:31.811Z,52.63
2018-12-20T16:33:59.887Z,47.47
2018-12-20T16:36:27.957Z,51.73
2018-12-20T16:38:56.020Z,48.70
2018-12-20T16:41:24.046Z,57.83
2018-12-20T16:43:52.197Z,59.73
2018-12-20T16:46:20.762Z,59.90
2018-12-20T16:48:49.561Z,55.63
2018-12-20T16:51:18.027Z,53.77
2018-12-20T16:53:47.522Z,51.87
2018-12-20T16:56:15.519Z,57.93
2018-12-20T16:58:44.031Z,52.87
2018-12-20T17:01:12.401Z,56.17
2018-12-20T17:03:40.995Z,55.40
2018-12-20T17:06:09.147Z,50.87
2018-12-20T17:08:37.077Z,55.10
2018-12-20T17:11:05.069Z,55.13
2018-12-20T17:13:33.059Z,49.03
2018-12-20T17:16:01.746Z,50.43
2018-12-20T17:18:29.707Z,47.77
2018-12-20T17:20:57.739Z,46.10
2018-12-20T17:23:25.714Z,49.67
2018-12-20T17:25:53.723Z,50.93
2018-12-20T17:28:21.722Z,50.37
2018-12-20T17:30:49.799Z,64.83
2018-12-20T17:33:18.402Z,54.10
2018-12-20T17:35:46.424Z,49.50
2018-12-20T17:38:14.395Z,48.97
2018-12-20T17:40:42.463Z,51.90
2018-12-20T17:43:10.599Z,56.30
2018-12-20T17:45:38.756Z,49.17
2018-12-20T17:48:06.838Z,51.20
2018-12-20T17:50:34.834Z,51.93
2018-12-20T17:53:03.689Z,48.13
2018-12-20T17:55:32.020Z,49.07
2018-12-20T17:58:00.077Z,46.17
2018-12-20T18:00:28.272Z,56.53
2018-12-20T18:02:56.287Z,49.47
2018-12-20T18:05:24.293Z,50.30
2018-12-20T18:07:54.130Z,53.07
2018-12-20T18:10:22.131Z,50.27
2018-12-20T18:12:50.237Z,53.00
2018-12-20T18:15:19.330Z,52.67
2018-12-20T18:17:47.338Z,63.27
2018-12-20T18:20:15.398Z,54.90
2018-12-20T18:22:43.733Z,51.67
2018-12-20T18:25:11.791Z,53.70
2018-12-20T18:27:40.239Z,48.70
2018-12-20T18:30:10.182Z,48.47
2018-12-20T18:32:38.326Z,50.43
2018-12-20T18:35:06.332Z,47.30
2018-12-20T18:37:34.599Z,51.57
2018-12-20T18:40:02.647Z,49.90
2018-12-20T18:42:30.603Z,52.77
2018-12-20T18:44:58.676Z,58.03
2018-12-20T18:47:26.647Z,55.13
2018-12-20T18:49:54.583Z,50.00
2018-12-20T18:52:22.800Z,53.73
2018-12-20T18:54:50.793Z,55.90
2018-12-20T18:57:18.818Z,56.53
2018-12-20T18:59:47.029Z,61.53
2018-12-20T19:02:15.058Z,56.00
2018-12-20T19:04:43.770Z,61.10
2018-12-20T19:07:11.813Z,61.87
2018-12-20T19:09:39.770Z,53.77
2018-12-20T19:12:07.797Z,59.37
2018-12-20T19:14:35.875Z,60.97
2018-12-20T19:17:03.839Z,58.03
2018-12-20T19:19:32.172Z,60.70
2018-12-20T19:22:00.235Z,59.10
2018-12-20T19:24:28.321Z,57.07
2018-12-20T19:26:56.317Z,59.20
2018-12-20T19:29:25.133Z,58.23
2018-12-20T19:31:53.206Z,59.77
2018-12-20T19:34:21.774Z,64.43
2018-12-20T19:36:49.738Z,64.00
2018-12-20T19:39:20.073Z,58.80
2018-12-20T19:41:48.059Z,58.93
2018-12-20T19:44:16.058Z,63.10
2018-12-20T19:46:44.108Z,59.63
2018-12-20T19:49:12.281Z,57.03
2018-12-20T19:51:40.454Z,61.90
2018-12-20T19:54:08.433Z,56.17
2018-12-20T19:56:36.415Z,55.53
2018-12-20T19:59:05.187Z,58.73
2018-12-20T20:01:33.424Z,58.77
2018-12-20T20:04:01.678Z,62.10
2018-12-20T20:06:29.662Z,61.47
2018-12-20T20:08:57.661Z,64.43
2018-12-20T20:11:25.663Z,68.10
2018-12-20T20:13:53.626Z,57.63
2018-12-20T20:16:21.752Z,58.97
2018-12-20T20:18:49.922Z,59.47
2018-12-20T20:21:17.906Z,61.13
2018-12-20T20:23:45.865Z,58.80
2018-12-20T20:26:13.795Z,61.83
2018-12-20T20:28:41.901Z,58.47
2018-12-20T20:31:09.855Z,57.87
2018-12-20T20:33:37.831Z,58.93
2018-12-20T20:36:05.819Z,60.07
2018-12-20T20:38:33.793Z,57.20
2018-12-20T20:41:01.765Z,56.80
2018-12-20T20:43:29.812Z,57.80
2018-12-20T20:45:57.781Z,57.63
2018-12-20T20:48:25.765Z,64.90
2018-12-20T20:50:56.240Z,58.87
2018-12-20T20:53:24.246Z,57.53
2018-12-20T20:55:52.282Z,56.10
2018-12-20T20:58:20.381Z,51.53
2018-12-20T21:00:48.414Z,53.03
2018-12-20T21:03:16.366Z,47.53
2018-12-20T21:05:44.368Z,47.73
2018-12-20T21:08:12.397Z,48.90
2018-12-20T21:10:40.395Z,44.07
2018-12-20T21:13:08.352Z,41.63
2018-12-20T21:15:36.781Z,41.87
2018-12-20T21:18:04.810Z,41.30
2018-12-20T21:20:32.764Z,45.73
2018-12-20T21:23:00.727Z,45.13
2018-12-20T21:25:28.999Z,42.13
2018-12-20T21:27:56.944Z,46.43
2018-12-20T21:30:24.963Z,47.10
2018-12-20T21:32:53.047Z,43.27
2018-12-20T21:35:21.060Z,52.00
2018-12-20T21:37:49.031Z,46.33
2018-12-20T21:40:18.685Z,46.30
2018-12-20T21:42:47.429Z,47.83
2018-12-20T21:45:15.559Z,47.87
2018-12-20T21:47:43.600Z,47.07
2018-12-20T21:50:11.601Z,59.10
2018-12-20T21:52:39.670Z,48.53
2018-12-20T21:55:07.768Z,49.80
2018-12-20T21:57:35.843Z,51.80
2018-12-20T22:00:05.403Z,47.17
2018-12-20T22:02:33.478Z,51.97
2018-12-20T22:05:01.464Z,45.10
2018-12-20T22:07:29.428Z,46.23
2018-12-20T22:09:57.469Z,47.77
2018-12-20T22:12:25.410Z,47.87
2018-12-20T22:14:53.369Z,49.60
2018-12-20T22:17:21.742Z,51.37
2018-12-20T22:19:49.722Z,52.30
2018-12-20T22:22:17.715Z,47.30
2018-12-20T22:24:45.741Z,47.23
2018-12-20T22:27:13.748Z,54.80
2018-12-20T22:29:41.720Z,45.20
2018-12-20T22:32:09.816Z,52.33
2018-12-20T22:34:37.807Z,46.90
2018-12-20T22:37:05.802Z,52.50
2018-12-20T22:39:34.157Z,46.60
2018-12-20T22:42:02.107Z,48.10
2018-12-20T22:44:30.141Z,46.77
2018-12-20T22:46:58.173Z,47.17
2018-12-20T22:49:26.092Z,46.60
2018-12-20T22:51:54.194Z,47.00
2018-12-20T22:54:22.186Z,50.30
2018-12-20T22:56:50.181Z,52.30
2018-12-20T22:59:18.142Z,44.13
2018-12-20T23:01:46.177Z,55.50
2018-12-20T23:04:14.159Z,47.47
2018-12-20T23:06:42.162Z,47.90
2018-12-20T23:09:10.204Z,49.30
2018-12-20T23:11:38.257Z,49.67
2018-12-20T23:14:07.576Z,54.50
2018-12-20T23:16:35.583Z,58.10
2018-12-20T23:19:03.739Z,59.50
2018-12-20T23:21:31.734Z,55.07
2018-12-20T23:23:59.708Z,49.37
2018-12-20T23:26:27.687Z,53.40
2018-12-20T23:28:55.651Z,56.40
2018-12-20T23:31:24.041Z,51.27
2018-12-20T23:33:51.998Z,52.20
2018-12-20T23:36:20.445Z,49.43
2018-12-20T23:38:48.524Z,55.10
2018-12-20T23:41:17.543Z,51.43
2018-12-20T23:43:45.563Z,48.77
2018-12-20T23:46:13.499Z,47.77
2018-12-20T23:48:41.501Z,50.87
2018-12-20T23:51:13.444Z,52.37
2018-12-20T23:53:39.416Z,51.30
2018-12-20T23:56:07.402Z,51.23
2018-12-20T23:58:35.400Z,45.83
